sensor_id;sensor_type;location;lat;lon;timestamp;pressure;altitude;pressure_sealevel;temperature;humidity
69060;BME280;56135;37.534;-122.308;2022-07-10T00:00:40;101913.47;;;22.45;51.82
69060;BME280;56135;37.534;-122.308;2022-07-10T00:03:06;101911.88;;;22.41;51.58
69060;BME280;56135;37.534;-122.308;2022-07-10T00:05:33;101906.88;;;22.31;51.79
69060;BME280;56135;37.534;-122.308;2022-07-10T00:08:02;101905.25;;;22.27;52.18
69060;BME280;56135;37.534;-122.308;2022-07-10T00:10:29;101907.88;;;22.29;52.13
69060;BME280;56135;37.534;-122.308;2022-07-10T00:12:55;101903.78;;;22.20;52.06
69060;BME280;56135;37.534;-122.308;2022-07-10T00:15:21;101902.13;;;22.16;52.44
69060;BME280;56135;37.534;-122.308;2022-07-10T00:17:48;101900.66;;;22.09;52.52
69060;BME280;56135;37.534;-122.308;2022-07-10T00:20:15;101905.03;;;22.11;52.86
69060;BME280;56135;37.534;-122.308;2022-07-10T00:22:42;101890.03;;;22.06;52.72
69060;BME280;56135;37.534;-122.308;2022-07-10T00:25:13;101894.59;;;22.04;52.96
69060;BME280;56135;37.534;-122.308;2022-07-10T00:27:40;101893.94;;;21.98;52.75
69060;BME280;56135;37.534;-122.308;2022-07-10T00:30:08;101893.25;;;21.93;53.20
69060;BME280;56135;37.534;-122.308;2022-07-10T00:32:34;101898.28;;;21.80;53.29
69060;BME280;56135;37.534;-122.308;2022-07-10T00:35:01;101888.69;;;21.73;53.60
69060;BME280;56135;37.534;-122.308;2022-07-10T00:37:28;101891.72;;;21.65;53.62
69060;BME280;56135;37.534;-122.308;2022-07-10T00:39:53;101886.63;;;21.58;54.22
69060;BME280;56135;37.534;-122.308;2022-07-10T00:42:21;101885.06;;;21.52;54.42
69060;BME280;56135;37.534;-122.308;2022-07-10T00:44:47;101881.56;;;21.50;54.23
69060;BME280;56135;37.534;-122.308;2022-07-10T00:47:13;101882.44;;;21.50;54.54
69060;BME280;56135;37.534;-122.308;2022-07-10T00:49:43;101873.53;;;21.48;54.19
69060;BME280;56135;37.534;-122.308;2022-07-10T00:52:13;101878.91;;;21.48;54.54
69060;BME280;56135;37.534;-122.308;2022-07-10T00:54:43;101882.56;;;21.47;54.32
69060;BME280;56135;37.534;-122.308;2022-07-10T00:57:10;101884.63;;;21.41;54.39
69060;BME280;56135;37.534;-122.308;2022-07-10T00:59:38;101877.63;;;21.37;54.88
69060;BME280;56135;37.534;-122.308;2022-07-10T01:02:04;101874.06;;;21.36;54.37
69060;BME280;56135;37.534;-122.308;2022-07-10T01:04:32;101873.91;;;21.39;54.82
69060;BME280;56135;37.534;-122.308;2022-07-10T01:06:58;101877.44;;;21.41;54.40
69060;BME280;56135;37.534;-122.308;2022-07-10T01:09:24;101870.22;;;21.42;54.04
69060;BME280;56135;37.534;-122.308;2022-07-10T01:11:50;101869.19;;;21.46;53.84
69060;BME280;56135;37.534;-122.308;2022-07-10T01:14:17;101864.63;;;21.48;52.60
69060;BME280;56135;37.534;-122.308;2022-07-10T01:16:43;101866.75;;;21.40;53.98
69060;BME280;56135;37.534;-122.308;2022-07-10T01:19:09;101870.44;;;21.37;53.44
69060;BME280;56135;37.534;-122.308;2022-07-10T01:21:36;101869.56;;;21.37;52.50
69060;BME280;56135;37.534;-122.308;2022-07-10T01:24:08;101876.88;;;21.33;54.05
69060;BME280;56135;37.534;-122.308;2022-07-10T01:26:35;101873.63;;;21.25;54.38
69060;BME280;56135;37.534;-122.308;2022-07-10T01:29:05;101872.16;;;21.16;53.09
69060;BME280;56135;37.534;-122.308;2022-07-10T01:31:31;101874.00;;;21.15;52.20
69060;BME280;56135;37.534;-122.308;2022-07-10T01:34:00;101868.91;;;21.08;52.57
69060;BME280;56135;37.534;-122.308;2022-07-10T01:36:28;101876.97;;;21.08;53.36
69060;BME280;56135;37.534;-122.308;2022-07-10T01:38:56;101865.41;;;21.06;53.21
69060;BME280;56135;37.534;-122.308;2022-07-10T01:41:23;101874.72;;;20.97;53.37
69060;BME280;56135;37.534;-122.308;2022-07-10T01:43:50;101872.38;;;20.88;54.86
69060;BME280;56135;37.534;-122.308;2022-07-10T01:46:16;101870.84;;;20.80;55.73
69060;BME280;56135;37.534;-122.308;2022-07-10T01:48:42;101873.94;;;20.70;56.55
69060;BME280;56135;37.534;-122.308;2022-07-10T01:51:10;101872.59;;;20.56;56.21
69060;BME280;56135;37.534;-122.308;2022-07-10T01:53:37;101876.56;;;20.46;56.48
69060;BME280;56135;37.534;-122.308;2022-07-10T01:56:06;101873.41;;;20.35;57.15
69060;BME280;56135;37.534;-122.308;2022-07-10T01:58:32;101871.13;;;20.22;57.01
69060;BME280;56135;37.534;-122.308;2022-07-10T02:00:58;101867.53;;;20.23;56.28
69060;BME280;56135;37.534;-122.308;2022-07-10T02:03:25;101867.06;;;20.10;57.45
69060;BME280;56135;37.534;-122.308;2022-07-10T02:06:09;101865.88;;;19.94;57.93
69060;BME280;56135;37.534;-122.308;2022-07-10T02:08:35;101864.56;;;19.79;58.07
69060;BME280;56135;37.534;-122.308;2022-07-10T02:11:01;101872.69;;;19.76;58.65
69060;BME280;56135;37.534;-122.308;2022-07-10T02:13:27;101866.03;;;19.61;58.85
69060;BME280;56135;37.534;-122.308;2022-07-10T02:15:54;101865.50;;;19.49;59.45
69060;BME280;56135;37.534;-122.308;2022-07-10T02:18:41;101864.00;;;19.41;59.57
69060;BME280;56135;37.534;-122.308;2022-07-10T02:21:07;101870.56;;;19.30;59.17
69060;BME280;56135;37.534;-122.308;2022-07-10T02:23:34;101870.75;;;19.26;59.56
69060;BME280;56135;37.534;-122.308;2022-07-10T02:26:01;101869.94;;;19.22;59.17
69060;BME280;56135;37.534;-122.308;2022-07-10T02:28:28;101867.28;;;19.22;58.53
69060;BME280;56135;37.534;-122.308;2022-07-10T02:30:55;101867.41;;;19.17;59.15
69060;BME280;56135;37.534;-122.308;2022-07-10T02:33:21;101855.81;;;19.17;58.31
69060;BME280;56135;37.534;-122.308;2022-07-10T02:35:47;101858.72;;;19.09;58.71
69060;BME280;56135;37.534;-122.308;2022-07-10T02:38:13;101849.09;;;19.04;58.51
69060;BME280;56135;37.534;-122.308;2022-07-10T02:40:39;101849.22;;;18.99;58.42
69060;BME280;56135;37.534;-122.308;2022-07-10T02:43:05;101856.50;;;18.94;57.92
69060;BME280;56135;37.534;-122.308;2022-07-10T02:45:32;101852.09;;;18.93;57.45
69060;BME280;56135;37.534;-122.308;2022-07-10T02:47:58;101850.44;;;18.87;58.63
69060;BME280;56135;37.534;-122.308;2022-07-10T02:50:24;101850.75;;;18.76;58.48
69060;BME280;56135;37.534;-122.308;2022-07-10T02:52:50;101849.16;;;18.71;58.45
69060;BME280;56135;37.534;-122.308;2022-07-10T02:55:16;101843.16;;;18.62;58.86
69060;BME280;56135;37.534;-122.308;2022-07-10T02:57:42;101856.69;;;18.56;59.71
69060;BME280;56135;37.534;-122.308;2022-07-10T03:00:09;101848.94;;;18.47;59.68
69060;BME280;56135;37.534;-122.308;2022-07-10T03:02:36;101844.75;;;18.37;60.65
69060;BME280;56135;37.534;-122.308;2022-07-10T03:05:01;101859.28;;;18.28;60.70
69060;BME280;56135;37.534;-122.308;2022-07-10T03:07:28;101855.03;;;18.19;61.51
69060;BME280;56135;37.534;-122.308;2022-07-10T03:09:54;101852.53;;;18.13;61.22
69060;BME280;56135;37.534;-122.308;2022-07-10T03:12:20;101846.59;;;18.02;62.10
69060;BME280;56135;37.534;-122.308;2022-07-10T03:14:46;101853.06;;;17.93;61.99
69060;BME280;56135;37.534;-122.308;2022-07-10T03:17:12;101856.88;;;17.82;62.91
69060;BME280;56135;37.534;-122.308;2022-07-10T03:19:38;101858.84;;;17.74;63.13
69060;BME280;56135;37.534;-122.308;2022-07-10T03:22:04;101860.00;;;17.62;63.57
69060;BME280;56135;37.534;-122.308;2022-07-10T03:24:30;101862.91;;;17.53;64.40
69060;BME280;56135;37.534;-122.308;2022-07-10T03:26:57;101862.41;;;17.37;65.38
69060;BME280;56135;37.534;-122.308;2022-07-10T03:29:23;101858.22;;;17.27;65.52
69060;BME280;56135;37.534;-122.308;2022-07-10T03:31:49;101859.44;;;17.10;65.80
69060;BME280;56135;37.534;-122.308;2022-07-10T03:34:15;101866.81;;;17.00;66.54
69060;BME280;56135;37.534;-122.308;2022-07-10T03:36:41;101860.75;;;16.91;66.87
69060;BME280;56135;37.534;-122.308;2022-07-10T03:39:07;101867.28;;;16.76;67.47
69060;BME280;56135;37.534;-122.308;2022-07-10T03:41:33;101865.75;;;16.64;68.41
69060;BME280;56135;37.534;-122.308;2022-07-10T03:44:00;101858.81;;;16.55;68.85
69060;BME280;56135;37.534;-122.308;2022-07-10T03:46:26;101869.69;;;16.46;69.04
69060;BME280;56135;37.534;-122.308;2022-07-10T03:48:52;101861.81;;;16.38;69.37
69060;BME280;56135;37.534;-122.308;2022-07-10T03:51:18;101869.09;;;16.28;69.55
69060;BME280;56135;37.534;-122.308;2022-07-10T03:53:44;101859.41;;;16.24;69.31
69060;BME280;56135;37.534;-122.308;2022-07-10T03:56:10;101863.13;;;16.14;69.55
69060;BME280;56135;37.534;-122.308;2022-07-10T03:58:56;101862.41;;;16.06;70.52
69060;BME280;56135;37.534;-122.308;2022-07-10T04:01:23;101866.13;;;15.97;70.79
69060;BME280;56135;37.534;-122.308;2022-07-10T04:03:49;101872.47;;;15.88;71.43
69060;BME280;56135;37.534;-122.308;2022-07-10T04:06:15;101871.69;;;15.83;71.02
69060;BME280;56135;37.534;-122.308;2022-07-10T04:08:41;101874.41;;;15.77;71.16
69060;BME280;56135;37.534;-122.308;2022-07-10T04:11:07;101878.06;;;15.70;71.95
69060;BME280;56135;37.534;-122.308;2022-07-10T04:13:33;101878.22;;;15.60;72.36
69060;BME280;56135;37.534;-122.308;2022-07-10T04:15:59;101882.75;;;15.55;72.12
69060;BME280;56135;37.534;-122.308;2022-07-10T04:18:25;101873.03;;;15.51;72.10
69060;BME280;56135;37.534;-122.308;2022-07-10T04:20:52;101881.97;;;15.47;73.56
69060;BME280;56135;37.534;-122.308;2022-07-10T04:23:18;101885.59;;;15.43;73.36
69060;BME280;56135;37.534;-122.308;2022-07-10T04:25:44;101891.94;;;15.34;73.45
69060;BME280;56135;37.534;-122.308;2022-07-10T04:28:10;101891.97;;;15.31;73.46
69060;BME280;56135;37.534;-122.308;2022-07-10T04:30:36;101889.38;;;15.26;74.07
69060;BME280;56135;37.534;-122.308;2022-07-10T04:33:02;101893.88;;;15.23;74.27
69060;BME280;56135;37.534;-122.308;2022-07-10T04:35:29;101887.75;;;15.16;74.97
69060;BME280;56135;37.534;-122.308;2022-07-10T04:37:55;101902.00;;;15.13;75.19
69060;BME280;56135;37.534;-122.308;2022-07-10T04:40:21;101888.75;;;15.07;75.49
69060;BME280;56135;37.534;-122.308;2022-07-10T04:42:47;101893.25;;;15.02;75.69
69060;BME280;56135;37.534;-122.308;2022-07-10T04:45:13;101893.31;;;14.97;75.91
69060;BME280;56135;37.534;-122.308;2022-07-10T04:47:39;101889.81;;;14.94;75.97
69060;BME280;56135;37.534;-122.308;2022-07-10T04:50:06;101890.75;;;14.90;76.53
69060;BME280;56135;37.534;-122.308;2022-07-10T04:52:32;101883.72;;;14.86;76.53
69060;BME280;56135;37.534;-122.308;2022-07-10T04:54:58;101896.16;;;14.82;76.71
69060;BME280;56135;37.534;-122.308;2022-07-10T04:57:24;101897.09;;;14.78;76.84
69060;BME280;56135;37.534;-122.308;2022-07-10T04:59:51;101892.72;;;14.74;76.97
69060;BME280;56135;37.534;-122.308;2022-07-10T05:02:19;101890.97;;;14.71;77.14
69060;BME280;56135;37.534;-122.308;2022-07-10T05:04:45;101903.41;;;14.69;76.89
69060;BME280;56135;37.534;-122.308;2022-07-10T05:10:33;101895.47;;;14.61;77.72
69060;BME280;56135;37.534;-122.308;2022-07-10T05:12:59;101905.25;;;14.59;77.97
69060;BME280;56135;37.534;-122.308;2022-07-10T05:15:25;101898.19;;;14.57;78.20
69060;BME280;56135;37.534;-122.308;2022-07-10T05:17:51;101907.97;;;14.53;78.21
69060;BME280;56135;37.534;-122.308;2022-07-10T05:20:18;101912.44;;;14.49;78.66
69060;BME280;56135;37.534;-122.308;2022-07-10T05:22:44;101909.81;;;14.46;79.01
69060;BME280;56135;37.534;-122.308;2022-07-10T05:25:10;101909.81;;;14.46;78.75
69060;BME280;56135;37.534;-122.308;2022-07-10T05:27:36;101905.41;;;14.44;79.11
69060;BME280;56135;37.534;-122.308;2022-07-10T05:30:02;101917.88;;;14.42;79.17
69060;BME280;56135;37.534;-122.308;2022-07-10T05:32:28;101909.03;;;14.37;79.08
69060;BME280;56135;37.534;-122.308;2022-07-10T05:34:57;101907.31;;;14.34;79.68
69060;BME280;56135;37.534;-122.308;2022-07-10T05:37:24;101903.78;;;14.30;79.53
69060;BME280;56135;37.534;-122.308;2022-07-10T05:39:50;101905.56;;;14.31;79.36
69060;BME280;56135;37.534;-122.308;2022-07-10T05:42:16;101898.50;;;14.29;79.76
69060;BME280;56135;37.534;-122.308;2022-07-10T05:44:42;101903.81;;;14.27;80.20
69060;BME280;56135;37.534;-122.308;2022-07-10T05:47:09;101905.63;;;14.24;79.89
69060;BME280;56135;37.534;-122.308;2022-07-10T05:49:35;101912.69;;;14.25;80.50
69060;BME280;56135;37.534;-122.308;2022-07-10T05:52:01;101905.69;;;14.16;80.37
69060;BME280;56135;37.534;-122.308;2022-07-10T05:54:27;101912.78;;;14.12;80.58
69060;BME280;56135;37.534;-122.308;2022-07-10T05:56:53;101900.47;;;14.07;80.43
69060;BME280;56135;37.534;-122.308;2022-07-10T05:59:19;101899.59;;;14.05;81.32
69060;BME280;56135;37.534;-122.308;2022-07-10T06:01:45;101904.91;;;14.06;81.47
69060;BME280;56135;37.534;-122.308;2022-07-10T06:04:11;101898.75;;;14.01;81.14
69060;BME280;56135;37.534;-122.308;2022-07-10T06:06:37;101900.53;;;13.97;80.85
69060;BME280;56135;37.534;-122.308;2022-07-10T06:09:04;101899.66;;;13.97;81.44
69060;BME280;56135;37.534;-122.308;2022-07-10T06:11:30;101898.81;;;13.93;81.41
69060;BME280;56135;37.534;-122.308;2022-07-10T06:13:56;101904.16;;;13.90;82.15
69060;BME280;56135;37.534;-122.308;2022-07-10T06:16:22;101901.53;;;13.84;81.86
69060;BME280;56135;37.534;-122.308;2022-07-10T06:18:48;101898.00;;;13.83;82.10
69060;BME280;56135;37.534;-122.308;2022-07-10T06:21:15;101898.03;;;13.82;81.94
69060;BME280;56135;37.534;-122.308;2022-07-10T06:23:41;101902.44;;;13.80;82.36
69060;BME280;56135;37.534;-122.308;2022-07-10T06:26:07;101898.06;;;13.76;82.20
69060;BME280;56135;37.534;-122.308;2022-07-10T06:28:36;101894.53;;;13.74;82.55
69060;BME280;56135;37.534;-122.308;2022-07-10T06:31:02;101904.28;;;13.72;82.63
69060;BME280;56135;37.534;-122.308;2022-07-10T06:33:28;101899.91;;;13.67;81.66
69060;BME280;56135;37.534;-122.308;2022-07-10T06:35:54;101899.03;;;13.62;83.33
69060;BME280;56135;37.534;-122.308;2022-07-10T06:38:21;101904.38;;;13.58;83.42
69060;BME280;56135;37.534;-122.308;2022-07-10T06:40:47;101907.91;;;13.57;83.96
69060;BME280;56135;37.534;-122.308;2022-07-10T06:43:13;101909.75;;;13.51;83.27
69060;BME280;56135;37.534;-122.308;2022-07-10T06:45:39;101910.66;;;13.49;84.06
69060;BME280;56135;37.534;-122.308;2022-07-10T06:48:06;101918.63;;;13.44;84.01
69060;BME280;56135;37.534;-122.308;2022-07-10T06:50:33;101926.59;;;13.43;84.59
69060;BME280;56135;37.534;-122.308;2022-07-10T06:53:02;101924.84;;;13.40;84.17
69060;BME280;56135;37.534;-122.308;2022-07-10T06:55:29;101927.47;;;13.42;85.20
69060;BME280;56135;37.534;-122.308;2022-07-10T06:57:55;101926.63;;;13.37;84.29
69060;BME280;56135;37.534;-122.308;2022-07-10T07:00:22;101916.91;;;13.31;84.45
69060;BME280;56135;37.534;-122.308;2022-07-10T07:02:48;101919.56;;;13.29;84.98
69060;BME280;56135;37.534;-122.308;2022-07-10T07:05:14;101913.44;;;13.20;84.87
69060;BME280;56135;37.534;-122.308;2022-07-10T07:07:41;101916.06;;;13.21;85.07
69060;BME280;56135;37.534;-122.308;2022-07-10T07:10:08;101913.44;;;13.16;85.58
69060;BME280;56135;37.534;-122.308;2022-07-10T07:12:35;101918.78;;;13.10;85.88
69060;BME280;56135;37.534;-122.308;2022-07-10T07:15:01;101907.28;;;13.07;86.52
69060;BME280;56135;37.534;-122.308;2022-07-10T07:17:27;101910.84;;;13.04;86.61
69060;BME280;56135;37.534;-122.308;2022-07-10T07:20:00;101913.50;;;13.04;87.00
69060;BME280;56135;37.534;-122.308;2022-07-10T07:22:45;101916.16;;;13.02;86.28
69060;BME280;56135;37.534;-122.308;2022-07-10T07:25:29;101917.97;;;12.96;87.50
69060;BME280;56135;37.534;-122.308;2022-07-10T07:27:56;101917.94;;;12.94;87.65
69060;BME280;56135;37.534;-122.308;2022-07-10T07:30:22;101912.63;;;12.93;87.48
69060;BME280;56135;37.534;-122.308;2022-07-10T07:32:48;101907.38;;;12.88;88.33
69060;BME280;56135;37.534;-122.308;2022-07-10T07:35:15;101906.47;;;12.88;88.38
69060;BME280;56135;37.534;-122.308;2022-07-10T07:37:49;101900.28;;;12.90;88.76
69060;BME280;56135;37.534;-122.308;2022-07-10T07:40:18;101909.13;;;12.86;88.08
69060;BME280;56135;37.534;-122.308;2022-07-10T07:42:46;101910.91;;;12.85;88.88
69060;BME280;56135;37.534;-122.308;2022-07-10T07:45:12;101914.44;;;12.84;89.29
69060;BME280;56135;37.534;-122.308;2022-07-10T07:50:12;101895.00;;;12.81;89.49
69060;BME280;56135;37.534;-122.308;2022-07-10T07:52:38;101902.09;;;12.82;89.77
69060;BME280;56135;37.534;-122.308;2022-07-10T07:55:05;101902.09;;;12.79;90.10
69060;BME280;56135;37.534;-122.308;2022-07-10T07:57:31;101897.69;;;12.76;89.60
69060;BME280;56135;37.534;-122.308;2022-07-10T07:59:57;101907.41;;;12.74;89.55
69060;BME280;56135;37.534;-122.308;2022-07-10T08:02:23;101908.28;;;12.72;89.59
69060;BME280;56135;37.534;-122.308;2022-07-10T08:04:49;101898.59;;;12.69;89.94
69060;BME280;56135;37.534;-122.308;2022-07-10T08:07:15;101904.78;;;12.68;90.16
69060;BME280;56135;37.534;-122.308;2022-07-10T08:09:42;101900.38;;;12.68;90.75
69060;BME280;56135;37.534;-122.308;2022-07-10T08:12:10;101894.19;;;12.68;90.38
69060;BME280;56135;37.534;-122.308;2022-07-10T08:14:36;101891.53;;;12.65;90.87
69060;BME280;56135;37.534;-122.308;2022-07-10T08:17:02;101883.59;;;12.63;90.53
69060;BME280;56135;37.534;-122.308;2022-07-10T08:19:28;101881.81;;;12.65;91.31
69060;BME280;56135;37.534;-122.308;2022-07-10T08:21:54;101879.19;;;12.64;90.94
69060;BME280;56135;37.534;-122.308;2022-07-10T08:24:21;101883.59;;;12.63;91.23
69060;BME280;56135;37.534;-122.308;2022-07-10T08:26:47;101881.84;;;12.59;90.79
69060;BME280;56135;37.534;-122.308;2022-07-10T08:29:13;101874.78;;;12.57;90.93
69060;BME280;56135;37.534;-122.308;2022-07-10T08:31:39;101878.31;;;12.52;90.95
69060;BME280;56135;37.534;-122.308;2022-07-10T08:34:05;101877.44;;;12.54;91.40
69060;BME280;56135;37.534;-122.308;2022-07-10T08:36:31;101872.13;;;12.49;91.03
69060;BME280;56135;37.534;-122.308;2022-07-10T08:38:58;101875.69;;;12.51;91.50
69060;BME280;56135;37.534;-122.308;2022-07-10T08:41:25;101859.75;;;12.48;91.03
69060;BME280;56135;37.534;-122.308;2022-07-10T08:43:52;101860.66;;;12.44;91.43
69060;BME280;56135;37.534;-122.308;2022-07-10T08:46:18;101859.81;;;12.40;91.25
69060;BME280;56135;37.534;-122.308;2022-07-10T08:48:49;101850.97;;;12.40;91.06
69060;BME280;56135;37.534;-122.308;2022-07-10T08:51:36;101858.94;;;12.37;91.43
69060;BME280;56135;37.534;-122.308;2022-07-10T08:54:04;101857.16;;;12.34;91.48
69060;BME280;56135;37.534;-122.308;2022-07-10T08:56:34;101862.47;;;12.34;91.69
69060;BME280;56135;37.534;-122.308;2022-07-10T08:59:04;101858.06;;;12.30;91.36
69060;BME280;56135;37.534;-122.308;2022-07-10T09:01:31;101866.91;;;12.27;90.66
69060;BME280;56135;37.534;-122.308;2022-07-10T09:03:57;101865.16;;;12.22;90.84
69060;BME280;56135;37.534;-122.308;2022-07-10T09:06:24;101866.91;;;12.18;90.42
69060;BME280;56135;37.534;-122.308;2022-07-10T09:09:07;101858.97;;;12.13;90.34
69060;BME280;56135;37.534;-122.308;2022-07-10T09:11:34;101859.84;;;12.11;89.98
69060;BME280;56135;37.534;-122.308;2022-07-10T09:14:02;101862.50;;;12.08;90.55
69060;BME280;56135;37.534;-122.308;2022-07-10T09:16:35;101863.41;;;12.04;90.27
69060;BME280;56135;37.534;-122.308;2022-07-10T09:19:24;101856.31;;;12.02;90.85
69060;BME280;56135;37.534;-122.308;2022-07-10T09:22:07;101852.81;;;12.00;90.13
69060;BME280;56135;37.534;-122.308;2022-07-10T09:24:44;101858.06;;;11.94;90.10
69060;BME280;56135;37.534;-122.308;2022-07-10T09:27:11;101859.81;;;11.92;90.68
69060;BME280;56135;37.534;-122.308;2022-07-10T09:29:48;101855.41;;;11.87;90.88
69060;BME280;56135;37.534;-122.308;2022-07-10T09:32:17;101856.31;;;11.84;91.44
69060;BME280;56135;37.534;-122.308;2022-07-10T09:34:46;101860.75;;;11.82;91.18
69060;BME280;56135;37.534;-122.308;2022-07-10T09:37:32;101851.03;;;11.87;92.42
69060;BME280;56135;37.534;-122.308;2022-07-10T09:39:59;101846.59;;;11.91;92.72
69060;BME280;56135;37.534;-122.308;2022-07-10T09:42:30;101843.97;;;11.86;93.07
69060;BME280;56135;37.534;-122.308;2022-07-10T09:47:45;101832.50;;;11.87;92.29
69060;BME280;56135;37.534;-122.308;2022-07-10T09:50:21;101835.13;;;11.89;93.21
69060;BME280;56135;37.534;-122.308;2022-07-10T09:53:11;101835.13;;;11.84;92.50
69060;BME280;56135;37.534;-122.308;2022-07-10T09:55:37;101837.78;;;11.81;92.98
69060;BME280;56135;37.534;-122.308;2022-07-10T09:58:06;101836.03;;;11.78;92.91
69060;BME280;56135;37.534;-122.308;2022-07-10T10:00:38;101837.78;;;11.76;93.11
69060;BME280;56135;37.534;-122.308;2022-07-10T10:03:09;101835.16;;;11.78;93.19
69060;BME280;56135;37.534;-122.308;2022-07-10T10:05:42;101829.84;;;11.75;93.00
69060;BME280;56135;37.534;-122.308;2022-07-10T10:10:44;101821.03;;;11.76;93.45
69060;BME280;56135;37.534;-122.308;2022-07-10T10:13:11;101822.78;;;11.77;93.67
69060;BME280;56135;37.534;-122.308;2022-07-10T10:15:42;101818.34;;;11.79;93.61
69060;BME280;56135;37.534;-122.308;2022-07-10T10:18:10;101825.41;;;11.80;93.64
69060;BME280;56135;37.534;-122.308;2022-07-10T10:20:38;101831.59;;;11.79;93.28
69060;BME280;56135;37.534;-122.308;2022-07-10T10:23:20;101816.59;;;11.76;93.83
69060;BME280;56135;37.534;-122.308;2022-07-10T10:25:48;101820.16;;;11.75;93.01
69060;BME280;56135;37.534;-122.308;2022-07-10T10:28:16;101818.38;;;11.77;93.56
69060;BME280;56135;37.534;-122.308;2022-07-10T10:30:45;101821.88;;;11.76;93.47
69060;BME280;56135;37.534;-122.308;2022-07-10T10:35:56;101824.56;;;11.72;93.49
69060;BME280;56135;37.534;-122.308;2022-07-10T10:38:22;101818.38;;;11.71;94.24
69060;BME280;56135;37.534;-122.308;2022-07-10T10:40:48;101817.47;;;11.72;93.53
69060;BME280;56135;37.534;-122.308;2022-07-10T10:43:17;101829.84;;;11.70;93.57
69060;BME280;56135;37.534;-122.308;2022-07-10T10:45:44;101817.50;;;11.64;93.46
69060;BME280;56135;37.534;-122.308;2022-07-10T10:48:13;101815.75;;;11.63;94.01
69060;BME280;56135;37.534;-122.308;2022-07-10T10:50:49;101822.78;;;11.61;93.78
69060;BME280;56135;37.534;-122.308;2022-07-10T10:53:28;101823.66;;;11.56;93.80
69060;BME280;56135;37.534;-122.308;2022-07-10T10:58:39;101823.69;;;11.54;93.66
69060;BME280;56135;37.534;-122.308;2022-07-10T11:06:49;101812.22;;;11.47;94.42
69060;BME280;56135;37.534;-122.308;2022-07-10T11:12:05;101823.66;;;11.46;94.25
69060;BME280;56135;37.534;-122.308;2022-07-10T11:14:36;101821.03;;;11.43;94.14
69060;BME280;56135;37.534;-122.308;2022-07-10T11:17:27;101821.03;;;11.45;95.02
69060;BME280;56135;37.534;-122.308;2022-07-10T11:19:54;101823.66;;;11.43;94.99
69060;BME280;56135;37.534;-122.308;2022-07-10T11:25:20;101820.13;;;11.44;95.35
69060;BME280;56135;37.534;-122.308;2022-07-10T11:28:05;101820.13;;;11.43;95.43
69060;BME280;56135;37.534;-122.308;2022-07-10T11:30:44;101817.50;;;11.40;95.49
69060;BME280;56135;37.534;-122.308;2022-07-10T11:33:11;101823.66;;;11.39;94.82
69060;BME280;56135;37.534;-122.308;2022-07-10T11:35:40;101824.53;;;11.38;95.60
69060;BME280;56135;37.534;-122.308;2022-07-10T11:38:06;101818.38;;;11.39;95.07
69060;BME280;56135;37.534;-122.308;2022-07-10T11:40:36;101821.88;;;11.34;95.02
69060;BME280;56135;37.534;-122.308;2022-07-10T11:43:03;101829.81;;;11.34;95.95
69060;BME280;56135;37.534;-122.308;2022-07-10T11:45:33;101829.81;;;11.30;95.82
69060;BME280;56135;37.534;-122.308;2022-07-10T11:48:04;101828.03;;;11.26;94.97
69060;BME280;56135;37.534;-122.308;2022-07-10T11:50:35;101826.25;;;11.23;95.03
69060;BME280;56135;37.534;-122.308;2022-07-10T11:53:02;101832.44;;;11.21;94.95
69060;BME280;56135;37.534;-122.308;2022-07-10T11:55:29;101828.91;;;11.22;95.08
69060;BME280;56135;37.534;-122.308;2022-07-10T11:57:56;101826.28;;;11.20;95.12
69060;BME280;56135;37.534;-122.308;2022-07-10T12:00:24;101815.69;;;11.18;95.01
69060;BME280;56135;37.534;-122.308;2022-07-10T12:02:52;101816.56;;;11.16;95.80
69060;BME280;56135;37.534;-122.308;2022-07-10T12:05:35;101821.84;;;11.13;94.98
69060;BME280;56135;37.534;-122.308;2022-07-10T12:08:02;101819.22;;;11.13;95.08
69060;BME280;56135;37.534;-122.308;2022-07-10T12:10:28;101810.38;;;11.11;94.59
69060;BME280;56135;37.534;-122.308;2022-07-10T12:13:09;101813.03;;;11.12;95.47
69060;BME280;56135;37.534;-122.308;2022-07-10T12:15:43;101813.91;;;11.11;95.33
69060;BME280;56135;37.534;-122.308;2022-07-10T12:18:16;101815.66;;;11.09;96.16
69060;BME280;56135;37.534;-122.308;2022-07-10T12:20:44;101818.31;;;11.09;95.36
69060;BME280;56135;37.534;-122.308;2022-07-10T12:23:15;101816.53;;;11.11;95.04
69060;BME280;56135;37.534;-122.308;2022-07-10T12:25:43;101813.94;;;11.13;94.94
69060;BME280;56135;37.534;-122.308;2022-07-10T12:28:09;101813.06;;;11.15;95.87
69060;BME280;56135;37.534;-122.308;2022-07-10T12:30:43;101812.19;;;11.18;95.44
69060;BME280;56135;37.534;-122.308;2022-07-10T12:33:14;101812.16;;;11.24;95.47
69060;BME280;56135;37.534;-122.308;2022-07-10T12:35:51;101822.75;;;11.32;95.63
69060;BME280;56135;37.534;-122.308;2022-07-10T12:38:20;101816.59;;;11.38;95.43
69060;BME280;56135;37.534;-122.308;2022-07-10T12:40:48;101814.84;;;11.41;95.95
69060;BME280;56135;37.534;-122.308;2022-07-10T12:43:25;101818.34;;;11.42;95.68
69060;BME280;56135;37.534;-122.308;2022-07-10T12:48:36;101821.03;;;11.52;95.28
69060;BME280;56135;37.534;-122.308;2022-07-10T12:53:47;101824.56;;;11.62;95.49
69060;BME280;56135;37.534;-122.308;2022-07-10T12:59:00;101817.50;;;11.64;94.81
69060;BME280;56135;37.534;-122.308;2022-07-10T13:01:28;101821.03;;;11.63;94.53